sensor_id;sensor_type;location;lat;lon;timestamp;temperature;humidity
24678;DHT22;12800;53.094;8.778;2023-05-29T00:00:26;13.00;72.50
24678;DHT22;12800;53.094;8.778;2023-05-29T00:02:51;13.00;72.60
24678;DHT22;12800;53.094;8.778;2023-05-29T00:05:17;12.90;72.60
24678;DHT22;12800;53.094;8.778;2023-05-29T00:07:43;13.00;72.80
24678;DHT22;12800;53.094;8.778;2023-05-29T00:10:10;12.90;72.80
24678;DHT22;12800;53.094;8.778;2023-05-29T00:12:36;12.90;72.70
24678;DHT22;12800;53.094;8.778;2023-05-29T00:15:02;12.90;72.80
24678;DHT22;12800;53.094;8.778;2023-05-29T00:17:29;12.80;72.80
24678;DHT22;12800;53.094;8.778;2023-05-29T00:20:00;12.80;73.70
24678;DHT22;12800;53.094;8.778;2023-05-29T00:22:27;12.80;73.00
24678;DHT22;12800;53.094;8.778;2023-05-29T00:24:52;12.70;73.00
24678;DHT22;12800;53.094;8.778;2023-05-29T00:27:18;12.70;73.20
24678;DHT22;12800;53.094;8.778;2023-05-29T00:29:44;12.70;73.20
24678;DHT22;12800;53.094;8.778;2023-05-29T00:32:10;12.70;73.30
24678;DHT22;12800;53.094;8.778;2023-05-29T00:34:36;12.70;73.20
24678;DHT22;12800;53.094;8.778;2023-05-29T00:37:01;12.70;73.30
24678;DHT22;12800;53.094;8.778;2023-05-29T00:39:27;12.70;73.30
24678;DHT22;12800;53.094;8.778;2023-05-29T00:41:53;12.60;73.30
24678;DHT22;12800;53.094;8.778;2023-05-29T00:44:19;12.70;73.40
24678;DHT22;12800;53.094;8.778;2023-05-29T00:46:46;12.60;73.40
24678;DHT22;12800;53.094;8.778;2023-05-29T00:49:14;12.60;73.40
24678;DHT22;12800;53.094;8.778;2023-05-29T00:51:42;12.50;73.50
24678;DHT22;12800;53.094;8.778;2023-05-29T00:54:11;12.50;73.60
24678;DHT22;12800;53.094;8.778;2023-05-29T00:56:38;12.50;73.60
24678;DHT22;12800;53.094;8.778;2023-05-29T00:59:05;12.40;73.70
24678;DHT22;12800;53.094;8.778;2023-05-29T01:01:31;12.30;73.80
24678;DHT22;12800;53.094;8.778;2023-05-29T01:03:59;12.30;74.00
24678;DHT22;12800;53.094;8.778;2023-05-29T01:06:26;12.30;74.20
24678;DHT22;12800;53.094;8.778;2023-05-29T01:08:52;12.30;74.20
24678;DHT22;12800;53.094;8.778;2023-05-29T01:11:48;12.30;74.20
24678;DHT22;12800;53.094;8.778;2023-05-29T01:14:45;12.30;74.20
24678;DHT22;12800;53.094;8.778;2023-05-29T01:20:02;12.20;74.30
24678;DHT22;12800;53.094;8.778;2023-05-29T01:28:11;12.10;74.60
24678;DHT22;12800;53.094;8.778;2023-05-29T01:30:39;12.10;74.70
24678;DHT22;12800;53.094;8.778;2023-05-29T01:33:05;12.10;74.70
24678;DHT22;12800;53.094;8.778;2023-05-29T01:35:32;12.20;74.80
24678;DHT22;12800;53.094;8.778;2023-05-29T01:37:58;12.10;74.60
24678;DHT22;12800;53.094;8.778;2023-05-29T01:40:23;12.10;74.90
24678;DHT22;12800;53.094;8.778;2023-05-29T01:42:50;12.10;74.90
24678;DHT22;12800;53.094;8.778;2023-05-29T01:45:16;12.00;75.00
24678;DHT22;12800;53.094;8.778;2023-05-29T01:47:42;12.00;75.00
24678;DHT22;12800;53.094;8.778;2023-05-29T01:50:09;12.00;75.00
24678;DHT22;12800;53.094;8.778;2023-05-29T01:52:36;12.00;75.00
24678;DHT22;12800;53.094;8.778;2023-05-29T01:55:02;12.00;75.20
24678;DHT22;12800;53.094;8.778;2023-05-29T01:57:28;11.90;75.10
24678;DHT22;12800;53.094;8.778;2023-05-29T01:59:54;11.90;75.20
24678;DHT22;12800;53.094;8.778;2023-05-29T02:02:21;11.90;75.30
24678;DHT22;12800;53.094;8.778;2023-05-29T02:04:48;11.80;75.40
24678;DHT22;12800;53.094;8.778;2023-05-29T02:07:14;11.80;75.40
24678;DHT22;12800;53.094;8.778;2023-05-29T02:09:41;11.80;75.60
24678;DHT22;12800;53.094;8.778;2023-05-29T02:12:06;11.80;76.60
24678;DHT22;12800;53.094;8.778;2023-05-29T02:14:33;11.70;75.70
24678;DHT22;12800;53.094;8.778;2023-05-29T02:16:59;11.70;75.70
24678;DHT22;12800;53.094;8.778;2023-05-29T02:19:26;11.70;75.60
24678;DHT22;12800;53.094;8.778;2023-05-29T02:21:52;11.70;75.80
24678;DHT22;12800;53.094;8.778;2023-05-29T02:24:18;11.70;75.70
24678;DHT22;12800;53.094;8.778;2023-05-29T02:26:44;11.60;75.80
24678;DHT22;12800;53.094;8.778;2023-05-29T02:29:09;11.60;75.70
24678;DHT22;12800;53.094;8.778;2023-05-29T02:31:36;11.60;75.70
24678;DHT22;12800;53.094;8.778;2023-05-29T02:34:01;11.60;75.70
24678;DHT22;12800;53.094;8.778;2023-05-29T02:36:27;11.60;75.60
24678;DHT22;12800;53.094;8.778;2023-05-29T02:38:53;11.60;75.70
24678;DHT22;12800;53.094;8.778;2023-05-29T02:41:18;11.60;75.60
24678;DHT22;12800;53.094;8.778;2023-05-29T02:43:44;11.60;75.50
24678;DHT22;12800;53.094;8.778;2023-05-29T02:46:09;11.50;75.50
24678;DHT22;12800;53.094;8.778;2023-05-29T02:48:35;11.50;75.50
24678;DHT22;12800;53.094;8.778;2023-05-29T02:51:00;11.50;75.40
24678;DHT22;12800;53.094;8.778;2023-05-29T02:53:26;11.50;75.50
24678;DHT22;12800;53.094;8.778;2023-05-29T02:55:52;11.50;75.50
24678;DHT22;12800;53.094;8.778;2023-05-29T02:58:17;11.50;75.50
24678;DHT22;12800;53.094;8.778;2023-05-29T03:00:43;11.50;75.40
24678;DHT22;12800;53.094;8.778;2023-05-29T03:03:09;11.50;75.30
24678;DHT22;12800;53.094;8.778;2023-05-29T03:05:34;11.50;75.20
24678;DHT22;12800;53.094;8.778;2023-05-29T03:08:00;11.50;75.30
24678;DHT22;12800;53.094;8.778;2023-05-29T03:10:26;11.50;75.20
24678;DHT22;12800;53.094;8.778;2023-05-29T03:12:51;11.50;75.10
24678;DHT22;12800;53.094;8.778;2023-05-29T03:15:17;11.50;75.00
24678;DHT22;12800;53.094;8.778;2023-05-29T03:17:45;11.40;74.90
24678;DHT22;12800;53.094;8.778;2023-05-29T03:20:11;11.50;75.00
24678;DHT22;12800;53.094;8.778;2023-05-29T03:22:37;11.50;75.00
24678;DHT22;12800;53.094;8.778;2023-05-29T03:25:03;11.50;74.80
24678;DHT22;12800;53.094;8.778;2023-05-29T03:27:30;11.50;74.70
24678;DHT22;12800;53.094;8.778;2023-05-29T03:29:56;11.50;74.60
24678;DHT22;12800;53.094;8.778;2023-05-29T03:32:21;11.50;74.40
24678;DHT22;12800;53.094;8.778;2023-05-29T03:34:47;11.50;74.30
24678;DHT22;12800;53.094;8.778;2023-05-29T03:37:13;11.50;74.20
24678;DHT22;12800;53.094;8.778;2023-05-29T03:39:39;11.40;74.30
24678;DHT22;12800;53.094;8.778;2023-05-29T03:42:05;11.40;74.10
24678;DHT22;12800;53.094;8.778;2023-05-29T03:44:30;11.40;74.20
24678;DHT22;12800;53.094;8.778;2023-05-29T03:46:56;11.40;74.30
24678;DHT22;12800;53.094;8.778;2023-05-29T03:49:21;11.40;74.10
24678;DHT22;12800;53.094;8.778;2023-05-29T03:51:47;11.40;73.90
24678;DHT22;12800;53.094;8.778;2023-05-29T03:54:13;11.40;74.00
24678;DHT22;12800;53.094;8.778;2023-05-29T03:56:38;11.40;74.00
24678;DHT22;12800;53.094;8.778;2023-05-29T03:59:04;11.40;74.10
24678;DHT22;12800;53.094;8.778;2023-05-29T04:01:30;11.50;74.00
24678;DHT22;12800;53.094;8.778;2023-05-29T04:03:55;11.50;74.00
24678;DHT22;12800;53.094;8.778;2023-05-29T04:06:21;11.50;73.90
24678;DHT22;12800;53.094;8.778;2023-05-29T04:08:47;11.50;73.80
24678;DHT22;12800;53.094;8.778;2023-05-29T04:11:13;11.50;73.80
24678;DHT22;12800;53.094;8.778;2023-05-29T04:13:39;11.50;73.80
24678;DHT22;12800;53.094;8.778;2023-05-29T04:16:05;11.50;73.80
24678;DHT22;12800;53.094;8.778;2023-05-29T04:18:31;11.50;73.70
24678;DHT22;12800;53.094;8.778;2023-05-29T04:20:57;11.50;73.60
24678;DHT22;12800;53.094;8.778;2023-05-29T04:23:23;11.50;73.40
24678;DHT22;12800;53.094;8.778;2023-05-29T04:25:48;11.50;73.40
24678;DHT22;12800;53.094;8.778;2023-05-29T04:28:16;11.50;73.40
24678;DHT22;12800;53.094;8.778;2023-05-29T04:30:42;11.60;73.40
24678;DHT22;12800;53.094;8.778;2023-05-29T04:33:08;11.60;73.30
24678;DHT22;12800;53.094;8.778;2023-05-29T04:35:35;11.60;73.20
24678;DHT22;12800;53.094;8.778;2023-05-29T04:38:01;11.60;73.00
24678;DHT22;12800;53.094;8.778;2023-05-29T04:40:26;11.70;73.00
24678;DHT22;12800;53.094;8.778;2023-05-29T04:42:52;11.70;72.90
24678;DHT22;12800;53.094;8.778;2023-05-29T04:45:20;11.70;72.90
24678;DHT22;12800;53.094;8.778;2023-05-29T04:47:46;11.70;72.80
24678;DHT22;12800;53.094;8.778;2023-05-29T04:50:15;11.80;72.70
24678;DHT22;12800;53.094;8.778;2023-05-29T04:52:42;11.80;72.60
24678;DHT22;12800;53.094;8.778;2023-05-29T04:55:08;11.80;72.40
24678;DHT22;12800;53.094;8.778;2023-05-29T04:57:35;11.80;72.30
24678;DHT22;12800;53.094;8.778;2023-05-29T05:00:02;11.90;72.50
24678;DHT22;12800;53.094;8.778;2023-05-29T05:02:31;11.90;72.20
24678;DHT22;12800;53.094;8.778;2023-05-29T05:04:57;12.00;72.00
24678;DHT22;12800;53.094;8.778;2023-05-29T05:07:23;12.00;71.80
24678;DHT22;12800;53.094;8.778;2023-05-29T05:09:48;12.00;71.90
24678;DHT22;12800;53.094;8.778;2023-05-29T05:12:14;12.00;71.80
24678;DHT22;12800;53.094;8.778;2023-05-29T05:14:39;12.10;71.70
24678;DHT22;12800;53.094;8.778;2023-05-29T05:17:05;12.10;71.50
24678;DHT22;12800;53.094;8.778;2023-05-29T05:19:31;12.10;71.40
24678;DHT22;12800;53.094;8.778;2023-05-29T05:21:56;12.10;71.20
24678;DHT22;12800;53.094;8.778;2023-05-29T05:24:22;12.10;71.10
24678;DHT22;12800;53.094;8.778;2023-05-29T05:26:48;12.10;71.10
24678;DHT22;12800;53.094;8.778;2023-05-29T05:29:13;12.20;71.20
24678;DHT22;12800;53.094;8.778;2023-05-29T05:31:39;12.20;71.20
24678;DHT22;12800;53.094;8.778;2023-05-29T05:34:04;12.20;71.00
24678;DHT22;12800;53.094;8.778;2023-05-29T05:36:30;12.20;71.10
24678;DHT22;12800;53.094;8.778;2023-05-29T05:38:56;12.30;71.10
24678;DHT22;12800;53.094;8.778;2023-05-29T05:41:22;12.30;71.00
24678;DHT22;12800;53.094;8.778;2023-05-29T05:43:47;12.40;70.90
24678;DHT22;12800;53.094;8.778;2023-05-29T05:46:13;12.50;70.80
24678;DHT22;12800;53.094;8.778;2023-05-29T05:48:40;12.50;70.70
24678;DHT22;12800;53.094;8.778;2023-05-29T05:51:06;12.60;70.60
24678;DHT22;12800;53.094;8.778;2023-05-29T05:53:31;12.60;70.30
24678;DHT22;12800;53.094;8.778;2023-05-29T05:55:57;12.60;70.00
24678;DHT22;12800;53.094;8.778;2023-05-29T05:58:23;12.70;69.90
24678;DHT22;12800;53.094;8.778;2023-05-29T06:00:48;12.60;69.80
24678;DHT22;12800;53.094;8.778;2023-05-29T06:03:18;12.60;69.70
24678;DHT22;12800;53.094;8.778;2023-05-29T06:05:43;12.60;69.80
24678;DHT22;12800;53.094;8.778;2023-05-29T06:08:09;12.60;69.70
24678;DHT22;12800;53.094;8.778;2023-05-29T06:10:34;12.60;69.80
24678;DHT22;12800;53.094;8.778;2023-05-29T06:13:01;12.60;69.80
24678;DHT22;12800;53.094;8.778;2023-05-29T06:15:27;12.60;69.90
24678;DHT22;12800;53.094;8.778;2023-05-29T06:17:52;12.70;70.00
24678;DHT22;12800;53.094;8.778;2023-05-29T06:20:20;12.70;70.00
24678;DHT22;12800;53.094;8.778;2023-05-29T06:22:46;12.70;70.00
24678;DHT22;12800;53.094;8.778;2023-05-29T06:25:19;12.80;70.00
24678;DHT22;12800;53.094;8.778;2023-05-29T06:27:45;12.80;69.70
24678;DHT22;12800;53.094;8.778;2023-05-29T06:30:12;12.80;69.80
24678;DHT22;12800;53.094;8.778;2023-05-29T06:32:38;12.70;69.70
24678;DHT22;12800;53.094;8.778;2023-05-29T06:35:03;12.70;69.80
24678;DHT22;12800;53.094;8.778;2023-05-29T06:37:31;12.70;69.80
24678;DHT22;12800;53.094;8.778;2023-05-29T06:39:57;12.80;70.10
24678;DHT22;12800;53.094;8.778;2023-05-29T06:42:22;12.80;70.20
24678;DHT22;12800;53.094;8.778;2023-05-29T06:44:48;12.90;70.20
24678;DHT22;12800;53.094;8.778;2023-05-29T06:47:13;13.00;70.10
24678;DHT22;12800;53.094;8.778;2023-05-29T06:49:39;13.00;70.10
24678;DHT22;12800;53.094;8.778;2023-05-29T06:52:05;13.10;70.30
24678;DHT22;12800;53.094;8.778;2023-05-29T06:54:30;13.10;70.00
24678;DHT22;12800;53.094;8.778;2023-05-29T06:56:56;13.10;70.10
24678;DHT22;12800;53.094;8.778;2023-05-29T06:59:22;13.20;70.00
24678;DHT22;12800;53.094;8.778;2023-05-29T07:01:47;13.20;69.70
24678;DHT22;12800;53.094;8.778;2023-05-29T07:04:13;13.30;69.50
24678;DHT22;12800;53.094;8.778;2023-05-29T07:06:39;13.30;69.00
24678;DHT22;12800;53.094;8.778;2023-05-29T07:09:04;13.30;68.80
24678;DHT22;12800;53.094;8.778;2023-05-29T07:11:30;13.30;68.70
24678;DHT22;12800;53.094;8.778;2023-05-29T07:13:56;13.40;68.70
24678;DHT22;12800;53.094;8.778;2023-05-29T07:16:21;13.50;68.50
24678;DHT22;12800;53.094;8.778;2023-05-29T07:18:47;13.50;68.50
24678;DHT22;12800;53.094;8.778;2023-05-29T07:21:13;13.50;68.30
24678;DHT22;12800;53.094;8.778;2023-05-29T07:23:39;13.60;68.20
24678;DHT22;12800;53.094;8.778;2023-05-29T07:26:05;13.60;68.00
24678;DHT22;12800;53.094;8.778;2023-05-29T07:28:31;13.70;68.10
24678;DHT22;12800;53.094;8.778;2023-05-29T07:30:57;13.70;67.90
24678;DHT22;12800;53.094;8.778;2023-05-29T07:33:23;13.80;67.80
24678;DHT22;12800;53.094;8.778;2023-05-29T07:35:48;13.80;67.90
24678;DHT22;12800;53.094;8.778;2023-05-29T07:38:14;13.90;67.60
24678;DHT22;12800;53.094;8.778;2023-05-29T07:40:39;14.00;67.60
24678;DHT22;12800;53.094;8.778;2023-05-29T07:43:05;14.10;67.10
24678;DHT22;12800;53.094;8.778;2023-05-29T07:45:31;14.10;66.70
24678;DHT22;12800;53.094;8.778;2023-05-29T07:47:56;14.20;66.40
24678;DHT22;12800;53.094;8.778;2023-05-29T07:50:22;14.20;66.10
24678;DHT22;12800;53.094;8.778;2023-05-29T07:52:47;14.30;66.30
24678;DHT22;12800;53.094;8.778;2023-05-29T07:55:13;14.40;66.20
24678;DHT22;12800;53.094;8.778;2023-05-29T07:57:38;14.50;65.80
24678;DHT22;12800;53.094;8.778;2023-05-29T08:00:08;14.50;65.30
24678;DHT22;12800;53.094;8.778;2023-05-29T08:02:34;14.60;65.20
24678;DHT22;12800;53.094;8.778;2023-05-29T08:05:00;14.60;65.10
24678;DHT22;12800;53.094;8.778;2023-05-29T08:07:25;14.70;64.70
24678;DHT22;12800;53.094;8.778;2023-05-29T08:09:54;14.70;64.70
24678;DHT22;12800;53.094;8.778;2023-05-29T08:12:20;14.80;64.60
24678;DHT22;12800;53.094;8.778;2023-05-29T08:14:45;14.90;64.40
24678;DHT22;12800;53.094;8.778;2023-05-29T08:17:11;15.00;64.40
24678;DHT22;12800;53.094;8.778;2023-05-29T08:19:37;15.10;64.40
24678;DHT22;12800;53.094;8.778;2023-05-29T08:22:02;15.10;63.90
24678;DHT22;12800;53.094;8.778;2023-05-29T08:24:28;15.20;63.70
24678;DHT22;12800;53.094;8.778;2023-05-29T08:26:54;15.30;63.40
24678;DHT22;12800;53.094;8.778;2023-05-29T08:29:19;15.30;63.20
24678;DHT22;12800;53.094;8.778;2023-05-29T08:31:45;15.40;63.20
24678;DHT22;12800;53.094;8.778;2023-05-29T08:34:11;15.40;62.80
24678;DHT22;12800;53.094;8.778;2023-05-29T08:36:37;15.40;62.60
24678;DHT22;12800;53.094;8.778;2023-05-29T08:39:03;15.40;63.30
24678;DHT22;12800;53.094;8.778;2023-05-29T08:41:38;15.40;62.50
24678;DHT22;12800;53.094;8.778;2023-05-29T08:44:07;15.50;62.40
24678;DHT22;12800;53.094;8.778;2023-05-29T08:46:36;15.50;62.00
24678;DHT22;12800;53.094;8.778;2023-05-29T08:49:02;15.50;61.90
24678;DHT22;12800;53.094;8.778;2023-05-29T08:51:32;15.50;61.60
24678;DHT22;12800;53.094;8.778;2023-05-29T08:54:00;15.60;61.20
24678;DHT22;12800;53.094;8.778;2023-05-29T08:56:27;15.60;61.00
24678;DHT22;12800;53.094;8.778;2023-05-29T08:58:53;15.60;60.80
24678;DHT22;12800;53.094;8.778;2023-05-29T09:01:19;15.70;60.90
24678;DHT22;12800;53.094;8.778;2023-05-29T09:03:47;15.70;60.80
24678;DHT22;12800;53.094;8.778;2023-05-29T09:06:12;15.80;60.60
24678;DHT22;12800;53.094;8.778;2023-05-29T09:08:38;15.80;60.20
24678;DHT22;12800;53.094;8.778;2023-05-29T09:11:04;15.80;60.10
24678;DHT22;12800;53.094;8.778;2023-05-29T09:13:30;15.80;60.10
24678;DHT22;12800;53.094;8.778;2023-05-29T09:16:00;15.80;59.80
24678;DHT22;12800;53.094;8.778;2023-05-29T09:18:31;15.90;59.80
24678;DHT22;12800;53.094;8.778;2023-05-29T09:21:06;15.90;59.70
24678;DHT22;12800;53.094;8.778;2023-05-29T09:23:34;15.90;59.80
24678;DHT22;12800;53.094;8.778;2023-05-29T09:26:02;16.00;59.90
24678;DHT22;12800;53.094;8.778;2023-05-29T09:28:30;16.00;59.80
24678;DHT22;12800;53.094;8.778;2023-05-29T09:30:57;16.00;59.70
24678;DHT22;12800;53.094;8.778;2023-05-29T09:33:22;16.00;60.00
24678;DHT22;12800;53.094;8.778;2023-05-29T09:35:49;16.00;60.00
24678;DHT22;12800;53.094;8.778;2023-05-29T09:38:16;16.00;59.90
24678;DHT22;12800;53.094;8.778;2023-05-29T09:40:43;16.00;60.70
24678;DHT22;12800;53.094;8.778;2023-05-29T09:43:12;16.10;60.10
24678;DHT22;12800;53.094;8.778;2023-05-29T09:45:48;16.20;60.00
24678;DHT22;12800;53.094;8.778;2023-05-29T09:48:19;16.30;59.20
24678;DHT22;12800;53.094;8.778;2023-05-29T09:50:47;16.40;59.10
24678;DHT22;12800;53.094;8.778;2023-05-29T09:53:23;16.40;58.80
24678;DHT22;12800;53.094;8.778;2023-05-29T09:55:53;16.40;58.70
24678;DHT22;12800;53.094;8.778;2023-05-29T09:58:20;16.40;58.60
24678;DHT22;12800;53.094;8.778;2023-05-29T10:00:48;16.40;58.80
24678;DHT22;12800;53.094;8.778;2023-05-29T10:03:15;16.50;58.60
24678;DHT22;12800;53.094;8.778;2023-05-29T10:05:41;16.50;58.20
24678;DHT22;12800;53.094;8.778;2023-05-29T10:08:11;16.60;58.10
24678;DHT22;12800;53.094;8.778;2023-05-29T10:10:43;16.60;58.00
24678;DHT22;12800;53.094;8.778;2023-05-29T10:13:11;16.70;58.10
24678;DHT22;12800;53.094;8.778;2023-05-29T10:15:37;16.70;57.90
24678;DHT22;12800;53.094;8.778;2023-05-29T10:18:07;16.80;58.10
24678;DHT22;12800;53.094;8.778;2023-05-29T10:20:38;16.80;58.00
24678;DHT22;12800;53.094;8.778;2023-05-29T10:23:04;16.90;58.00
24678;DHT22;12800;53.094;8.778;2023-05-29T10:25:33;16.90;58.00
24678;DHT22;12800;53.094;8.778;2023-05-29T10:28:01;17.00;58.20
24678;DHT22;12800;53.094;8.778;2023-05-29T10:30:41;17.00;58.10
24678;DHT22;12800;53.094;8.778;2023-05-29T10:33:51;17.00;58.00
24678;DHT22;12800;53.094;8.778;2023-05-29T10:36:20;17.00;58.00
24678;DHT22;12800;53.094;8.778;2023-05-29T10:38:49;17.10;58.10
24678;DHT22;12800;53.094;8.778;2023-05-29T10:43:57;17.10;57.90
24678;DHT22;12800;53.094;8.778;2023-05-29T10:51:42;17.20;57.70
24678;DHT22;12800;53.094;8.778;2023-05-29T10:54:09;17.30;57.50
24678;DHT22;12800;53.094;8.778;2023-05-29T10:56:35;17.30;57.60
24678;DHT22;12800;53.094;8.778;2023-05-29T10:59:01;17.40;57.60
24678;DHT22;12800;53.094;8.778;2023-05-29T11:01:28;17.50;57.60
24678;DHT22;12800;53.094;8.778;2023-05-29T11:06:39;17.60;56.80
24678;DHT22;12800;53.094;8.778;2023-05-29T11:09:27;17.60;56.40
24678;DHT22;12800;53.094;8.778;2023-05-29T11:12:15;17.60;56.60
24678;DHT22;12800;53.094;8.778;2023-05-29T11:14:56;17.70;56.80
24678;DHT22;12800;53.094;8.778;2023-05-29T11:20:48;17.70;57.20
24678;DHT22;12800;53.094;8.778;2023-05-29T11:25:25;17.70;56.80
24678;DHT22;12800;53.094;8.778;2023-05-29T11:27:51;17.70;56.70
24678;DHT22;12800;53.094;8.778;2023-05-29T11:30:21;17.70;56.80
24678;DHT22;12800;53.094;8.778;2023-05-29T11:32:47;17.80;56.60
24678;DHT22;12800;53.094;8.778;2023-05-29T11:35:14;17.80;57.00
24678;DHT22;12800;53.094;8.778;2023-05-29T11:37:44;17.80;56.90
24678;DHT22;12800;53.094;8.778;2023-05-29T11:40:12;17.90;56.90
24678;DHT22;12800;53.094;8.778;2023-05-29T11:42:46;18.00;57.10
24678;DHT22;12800;53.094;8.778;2023-05-29T11:45:16;18.00;56.30
24678;DHT22;12800;53.094;8.778;2023-05-29T11:47:58;18.00;56.20
24678;DHT22;12800;53.094;8.778;2023-05-29T11:50:25;18.10;56.10
24678;DHT22;12800;53.094;8.778;2023-05-29T11:52:52;18.10;55.90
24678;DHT22;12800;53.094;8.778;2023-05-29T11:55:21;18.10;56.00
24678;DHT22;12800;53.094;8.778;2023-05-29T11:57:48;18.10;56.10
24678;DHT22;12800;53.094;8.778;2023-05-29T12:00:19;18.20;56.50
24678;DHT22;12800;53.094;8.778;2023-05-29T12:02:45;18.20;56.30
24678;DHT22;12800;53.094;8.778;2023-05-29T12:05:16;18.30;56.40
24678;DHT22;12800;53.094;8.778;2023-05-29T12:07:49;18.30;56.80
24678;DHT22;12800;53.094;8.778;2023-05-29T12:10:20;18.30;55.90
24678;DHT22;12800;53.094;8.778;2023-05-29T12:12:57;18.30;55.70
24678;DHT22;12800;53.094;8.778;2023-05-29T12:15:23;18.40;55.90
24678;DHT22;12800;53.094;8.778;2023-05-29T12:17:50;18.40;56.10
24678;DHT22;12800;53.094;8.778;2023-05-29T12:20:17;18.50;55.90
24678;DHT22;12800;53.094;8.778;2023-05-29T12:22:43;18.50;55.80
24678;DHT22;12800;53.094;8.778;2023-05-29T12:25:11;18.50;55.50
24678;DHT22;12800;53.094;8.778;2023-05-29T12:27:45;18.50;55.70
24678;DHT22;12800;53.094;8.778;2023-05-29T12:30:21;18.50;56.50
24678;DHT22;12800;53.094;8.778;2023-05-29T12:32:48;18.50;55.60
24678;DHT22;12800;53.094;8.778;2023-05-29T12:40:18;18.70;55.40
24678;DHT22;12800;53.094;8.778;2023-05-29T12:42:44;18.70;55.00
24678;DHT22;12800;53.094;8.778;2023-05-29T12:45:10;18.70;55.10
24678;DHT22;12800;53.094;8.778;2023-05-29T12:47:36;18.60;55.50
24678;DHT22;12800;53.094;8.778;2023-05-29T12:50:21;18.60;55.70
24678;DHT22;12800;53.094;8.778;2023-05-29T12:53:15;18.60;55.60
24678;DHT22;12800;53.094;8.778;2023-05-29T12:55:43;18.60;55.80
24678;DHT22;12800;53.094;8.778;2023-05-29T12:58:10;18.60;55.70
24678;DHT22;12800;53.094;8.778;2023-05-29T13:00:37;18.70;55.70
24678;DHT22;12800;53.094;8.778;2023-05-29T13:03:04;18.80;55.40
24678;DHT22;12800;53.094;8.778;2023-05-29T13:05:30;18.90;55.30
24678;DHT22;12800;53.094;8.778;2023-05-29T13:07:56;18.90;55.10
24678;DHT22;12800;53.094;8.778;2023-05-29T13:10:22;19.00;55.10
24678;DHT22;12800;53.094;8.778;2023-05-29T13:12:49;19.10;54.90
24678;DHT22;12800;53.094;8.778;2023-05-29T13:15:21;19.10;54.60
24678;DHT22;12800;53.094;8.778;2023-05-29T13:17:47;19.10;54.20
24678;DHT22;12800;53.094;8.778;2023-05-29T13:20:13;19.20;54.20
24678;DHT22;12800;53.094;8.778;2023-05-29T13:22:40;19.30;53.90
24678;DHT22;12800;53.094;8.778;2023-05-29T13:25:07;19.30;53.80
24678;DHT22;12800;53.094;8.778;2023-05-29T13:27:35;19.40;53.60
24678;DHT22;12800;53.094;8.778;2023-05-29T13:30:02;19.50;53.40
24678;DHT22;12800;53.094;8.778;2023-05-29T13:32:28;19.60;53.30
24678;DHT22;12800;53.094;8.778;2023-05-29T13:34:54;19.60;53.10
24678;DHT22;12800;53.094;8.778;2023-05-29T13:37:21;19.70;53.20
24678;DHT22;12800;53.094;8.778;2023-05-29T13:39:46;19.80;53.10
24678;DHT22;12800;53.094;8.778;2023-05-29T13:42:12;19.90;53.30
24678;DHT22;12800;53.094;8.778;2023-05-29T13:44:38;20.00;52.80
24678;DHT22;12800;53.094;8.778;2023-05-29T13:47:05;20.00;52.40
24678;DHT22;12800;53.094;8.778;2023-05-29T13:49:31;20.00;52.10
24678;DHT22;12800;53.094;8.778;2023-05-29T13:51:56;20.10;52.10
24678;DHT22;12800;53.094;8.778;2023-05-29T13:54:22;20.20;52.00
24678;DHT22;12800;53.094;8.778;2023-05-29T13:56:48;20.20;51.80
24678;DHT22;12800;53.094;8.778;2023-05-29T13:59:14;20.20;51.50
24678;DHT22;12800;53.094;8.778;2023-05-29T14:01:40;20.20;51.50
24678;DHT22;12800;53.094;8.778;2023-05-29T14:04:06;20.20;51.80
24678;DHT22;12800;53.094;8.778;2023-05-29T14:06:33;20.20;51.20
24678;DHT22;12800;53.094;8.778;2023-05-29T14:08:59;20.30;50.70
24678;DHT22;12800;53.094;8.778;2023-05-29T14:11:25;20.40;50.30
24678;DHT22;12800;53.094;8.778;2023-05-29T14:13:52;20.40;50.50
24678;DHT22;12800;53.094;8.778;2023-05-29T14:16:17;20.40;50.80
24678;DHT22;12800;53.094;8.778;2023-05-29T14:18:43;20.40;50.50
24678;DHT22;12800;53.094;8.778;2023-05-29T14:21:09;20.40;50.60
24678;DHT22;12800;53.094;8.778;2023-05-29T14:23:35;20.50;51.10
24678;DHT22;12800;53.094;8.778;2023-05-29T14:26:01;20.70;51.00
24678;DHT22;12800;53.094;8.778;2023-05-29T14:28:27;20.80;50.90
24678;DHT22;12800;53.094;8.778;2023-05-29T14:30:52;20.90;50.30
24678;DHT22;12800;53.094;8.778;2023-05-29T14:33:18;20.90;50.00
24678;DHT22;12800;53.094;8.778;2023-05-29T14:35:44;21.00;49.90
24678;DHT22;12800;53.094;8.778;2023-05-29T14:38:10;21.10;49.40
24678;DHT22;12800;53.094;8.778;2023-05-29T14:40:35;21.20;49.40
24678;DHT22;12800;53.094;8.778;2023-05-29T14:43:03;21.40;49.20
24678;DHT22;12800;53.094;8.778;2023-05-29T14:45:28;21.40;48.80
24678;DHT22;12800;53.094;8.778;2023-05-29T14:47:54;21.50;48.80
24678;DHT22;12800;53.094;8.778;2023-05-29T14:50:20;21.50;48.60
24678;DHT22;12800;53.094;8.778;2023-05-29T14:52:46;21.50;48.60
24678;DHT22;12800;53.094;8.778;2023-05-29T14:55:13;21.50;48.80
24678;DHT22;12800;53.094;8.778;2023-05-29T14:57:40;21.60;48.90
24678;DHT22;12800;53.094;8.778;2023-05-29T15:00:06;21.70;48.40
24678;DHT22;12800;53.094;8.778;2023-05-29T15:02:32;21.70;48.40
24678;DHT22;12800;53.094;8.778;2023-05-29T15:04:58;21.70;47.90
24678;DHT22;12800;53.094;8.778;2023-05-29T15:07:24;21.60;47.90
24678;DHT22;12800;53.094;8.778;2023-05-29T15:09:49;21.60;47.90
24678;DHT22;12800;53.094;8.778;2023-05-29T15:12:15;21.70;48.00
24678;DHT22;12800;53.094;8.778;2023-05-29T15:14:41;21.60;48.00
24678;DHT22;12800;53.094;8.778;2023-05-29T15:17:06;21.60;47.80
24678;DHT22;12800;53.094;8.778;2023-05-29T15:19:32;21.70;47.60
24678;DHT22;12800;53.094;8.778;2023-05-29T15:21:58;21.60;47.70
24678;DHT22;12800;53.094;8.778;2023-05-29T15:24:23;21.70;48.00
24678;DHT22;12800;53.094;8.778;2023-05-29T15:26:49;21.80;47.50
24678;DHT22;12800;53.094;8.778;2023-05-29T15:29:16;21.80;48.00
24678;DHT22;12800;53.094;8.778;2023-05-29T15:31:41;21.80;48.10
24678;DHT22;12800;53.094;8.778;2023-05-29T15:34:07;21.80;47.40
24678;DHT22;12800;53.094;8.778;2023-05-29T15:36:33;21.90;47.60
24678;DHT22;12800;53.094;8.778;2023-05-29T15:38:59;22.10;47.40
24678;DHT22;12800;53.094;8.778;2023-05-29T15:41:25;22.20;47.10
24678;DHT22;12800;53.094;8.778;2023-05-29T15:43:57;22.40;47.00
24678;DHT22;12800;53.094;8.778;2023-05-29T15:46:29;22.70;46.80
24678;DHT22;12800;53.094;8.778;2023-05-29T15:48:55;22.80;46.60
24678;DHT22;12800;53.094;8.778;2023-05-29T15:51:21;23.00;46.30
24678;DHT22;12800;53.094;8.778;2023-05-29T15:53:47;22.90;45.50
24678;DHT22;12800;53.094;8.778;2023-05-29T15:56:12;22.80;45.60
24678;DHT22;12800;53.094;8.778;2023-05-29T15:58:38;22.60;46.10